createdAt,value
2023-02-14T00:00:57.044Z,2.62
2023-02-14T00:02:00.833Z,2.61
2023-02-14T00:03:01.325Z,2.61
2023-02-14T00:04:04.120Z,2.61
2023-02-14T00:05:05.167Z,2.61
2023-02-14T00:06:08.366Z,2.61
2023-02-14T00:07:09.967Z,2.61
2023-02-14T00:08:10.501Z,2.61
2023-02-14T00:09:14.636Z,2.61
2023-02-14T00:10:15.163Z,2.61
2023-02-14T00:11:15.531Z,2.60
2023-02-14T00:12:16.299Z,2.61
2023-02-14T00:13:16.740Z,2.61
2023-02-14T00:14:36.589Z,2.60
2023-02-14T00:15:36.973Z,2.60
2023-02-14T00:16:37.356Z,2.59
2023-02-14T00:17:37.762Z,2.59
2023-02-14T00:18:56.867Z,2.59
2023-02-14T00:19:57.497Z,2.59
2023-02-14T00:21:00.136Z,2.61
2023-02-14T00:22:01.636Z,2.62
2023-02-14T00:23:01.999Z,2.62
2023-02-14T00:24:09.282Z,2.61
2023-02-14T00:25:09.848Z,2.61
2023-02-14T00:26:14.484Z,2.61
2023-02-14T00:27:15.728Z,2.60
2023-02-14T00:28:16.102Z,2.59
2023-02-14T00:29:29.563Z,2.58
2023-02-14T00:30:30.246Z,2.57
2023-02-14T00:31:31.001Z,2.57
2023-02-14T00:32:31.551Z,2.58
2023-02-14T00:33:31.910Z,2.57
2023-02-14T00:34:35.767Z,2.58
2023-02-14T00:35:38.008Z,2.59
2023-02-14T00:36:38.333Z,2.59
2023-02-14T00:37:38.764Z,2.60
2023-02-14T00:38:39.223Z,2.59
2023-02-14T00:39:41.938Z,2.59
2023-02-14T00:40:42.362Z,2.58
2023-02-14T00:41:43.707Z,2.58
2023-02-14T00:42:44.249Z,2.56
2023-02-14T00:43:46.716Z,2.55
2023-02-14T00:44:47.287Z,2.55
2023-02-14T00:45:47.844Z,2.55
2023-02-14T00:46:48.257Z,2.54
2023-02-14T00:47:48.882Z,2.54
2023-02-14T00:48:49.942Z,2.54
2023-02-14T00:49:50.470Z,2.55
2023-02-14T00:50:51.997Z,2.56
2023-02-14T00:51:52.298Z,2.56
2023-02-14T00:52:52.798Z,2.57
2023-02-14T00:53:53.876Z,2.57
2023-02-14T00:54:54.293Z,2.57
2023-02-14T00:55:54.704Z,2.57
2023-02-14T00:56:55.096Z,2.55
2023-02-14T00:57:56.207Z,2.54
2023-02-14T00:58:56.820Z,2.53
2023-02-14T00:59:57.161Z,2.51
2023-02-14T01:00:59.418Z,2.52
2023-02-14T01:01:59.992Z,2.53
2023-02-14T01:03:02.696Z,2.53
2023-02-14T01:04:03.683Z,2.53
2023-02-14T01:05:04.736Z,2.55
2023-02-14T01:06:06.539Z,2.55
2023-02-14T01:07:06.945Z,2.56
2023-02-14T01:08:08.890Z,2.56
2023-02-14T01:09:10.721Z,2.56
2023-02-14T01:10:11.750Z,2.55
2023-02-14T01:11:16.478Z,2.53
2023-02-14T01:12:16.927Z,2.52
2023-02-14T01:13:19.060Z,2.51
2023-02-14T01:14:19.437Z,2.51
2023-02-14T01:15:19.839Z,2.51
2023-02-14T01:16:23.919Z,2.52
2023-02-14T01:17:24.343Z,2.53
2023-02-14T01:18:25.029Z,2.53
2023-02-14T01:19:25.450Z,2.53
2023-02-14T01:20:26.781Z,2.53
2023-02-14T01:21:31.340Z,2.52
2023-02-14T01:22:35.830Z,2.53
2023-02-14T01:23:36.238Z,2.53
2023-02-14T01:24:36.534Z,2.52
2023-02-14T01:25:38.732Z,2.51
2023-02-14T01:26:39.314Z,2.51
2023-02-14T01:27:39.775Z,2.51
2023-02-14T01:28:41.315Z,2.51
2023-02-14T01:29:42.510Z,2.51
2023-02-14T01:30:42.884Z,2.51
2023-02-14T01:31:44.326Z,2.50
2023-02-14T01:32:44.856Z,2.51
2023-02-14T01:33:47.416Z,2.50
2023-02-14T01:34:47.846Z,2.51
2023-02-14T01:35:48.328Z,2.51
2023-02-14T01:36:48.733Z,2.49
2023-02-14T01:37:49.461Z,2.49
2023-02-14T01:38:59.155Z,2.47
2023-02-14T01:40:00.003Z,2.46
2023-02-14T01:41:00.816Z,2.44
2023-02-14T01:42:01.682Z,2.43
2023-02-14T01:43:02.090Z,2.44
2023-02-14T01:44:25.500Z,2.43
2023-02-14T01:45:27.726Z,2.43
2023-02-14T01:46:31.718Z,2.46
2023-02-14T01:47:39.650Z,2.46
2023-02-14T01:48:40.730Z,2.45
2023-02-14T01:49:52.124Z,2.47
2023-02-14T01:50:54.255Z,2.45
2023-02-14T01:52:03.641Z,2.45
2023-02-14T01:53:11.580Z,2.43
2023-02-14T01:54:13.105Z,2.42
2023-02-14T01:55:22.444Z,2.41
2023-02-14T01:56:32.207Z,2.40
2023-02-14T01:57:40.072Z,2.40
2023-02-14T01:58:45.223Z,2.39
2023-02-14T02:00:19.769Z,2.39
2023-02-14T02:01:20.764Z,2.40
2023-02-14T02:02:23.063Z,2.39
2023-02-14T02:03:47.351Z,2.39
2023-02-14T02:04:47.909Z,2.39
2023-02-14T02:05:55.564Z,2.39
2023-02-14T02:07:06.258Z,2.37
2023-02-14T02:08:07.006Z,2.36
2023-02-14T02:09:41.900Z,2.35
2023-02-14T02:10:42.586Z,2.34
2023-02-14T02:11:43.983Z,2.33
2023-02-14T02:12:44.955Z,2.32
2023-02-14T02:13:45.329Z,2.34
2023-02-14T02:14:49.183Z,2.33
2023-02-14T02:16:11.332Z,2.31
2023-02-14T02:17:37.061Z,2.30
2023-02-14T02:18:40.267Z,2.28
2023-02-14T02:20:14.237Z,2.26
2023-02-14T02:21:47.695Z,2.24
2023-02-14T02:23:06.465Z,2.23
2023-02-14T02:24:12.840Z,2.22
2023-02-14T02:25:40.628Z,2.22
2023-02-14T02:26:50.462Z,2.21
2023-02-14T02:27:59.665Z,2.21
2023-02-14T02:29:24.717Z,2.20
2023-02-14T02:31:04.945Z,2.21
2023-02-14T02:32:35.122Z,2.20
2023-02-14T02:34:27.073Z,2.20
2023-02-14T02:35:56.844Z,2.18
2023-02-14T02:36:57.190Z,2.18
2023-02-14T02:38:16.995Z,2.18
2023-02-14T02:39:41.388Z,2.17
2023-02-14T02:40:51.751Z,2.17
2023-02-14T02:42:23.093Z,2.19
2023-02-14T02:44:03.720Z,2.19
2023-02-14T02:45:57.057Z,2.20
2023-02-14T02:47:05.977Z,2.19
2023-02-14T02:48:19.388Z,2.18
2023-02-14T02:50:00.087Z,2.15
2023-02-14T02:51:25.067Z,2.12
2023-02-14T02:52:50.114Z,2.11
2023-02-14T02:54:03.428Z,2.10
2023-02-14T02:55:19.870Z,2.11
2023-02-14T02:56:46.027Z,2.11
2023-02-14T02:57:51.156Z,2.10
2023-02-14T02:59:17.436Z,2.10
2023-02-14T03:00:23.552Z,2.06
2023-02-14T03:01:31.931Z,2.05
2023-02-14T03:03:06.373Z,2.03
2023-02-14T03:04:30.131Z,2.02
2023-02-14T03:05:33.922Z,2.01
2023-02-14T03:06:34.483Z,2.00
2023-02-14T03:07:39.079Z,2.01
2023-02-14T03:08:43.790Z,1.99
2023-02-14T03:09:58.521Z,2.00
2023-02-14T03:11:04.092Z,1.98
2023-02-14T03:12:20.708Z,1.98
2023-02-14T03:13:51.454Z,1.96
2023-02-14T03:15:01.166Z,1.94
2023-02-14T03:16:25.347Z,1.92
2023-02-14T03:18:02.004Z,1.89
2023-02-14T03:20:01.799Z,1.90
2023-02-14T03:21:11.529Z,1.88
2023-02-14T03:22:15.725Z,1.89
2023-02-14T03:23:24.929Z,1.88
2023-02-14T03:24:41.147Z,1.87
2023-02-14T03:26:10.005Z,1.87
2023-02-14T03:27:35.925Z,1.86
2023-02-14T03:29:23.354Z,1.87
2023-02-14T03:30:48.409Z,1.85
2023-02-14T03:32:02.380Z,1.83
2023-02-14T03:33:16.202Z,1.83
2023-02-14T03:34:24.335Z,1.83
2023-02-14T03:36:01.620Z,1.81
2023-02-14T03:37:14.638Z,1.82
2023-02-14T03:38:29.159Z,1.83
2023-02-14T03:39:52.674Z,1.84
2023-02-14T03:41:02.280Z,1.84
2023-02-14T03:42:16.517Z,1.83
2023-02-14T03:43:43.642Z,1.84
2023-02-14T03:44:48.542Z,1.82
2023-02-14T03:46:06.281Z,1.81
2023-02-14T03:47:16.745Z,1.82
2023-02-14T03:48:23.358Z,1.82
2023-02-14T03:49:30.367Z,1.82
2023-02-14T03:50:35.018Z,1.80
2023-02-14T03:51:38.365Z,1.81
2023-02-14T03:52:45.535Z,1.80
2023-02-14T03:53:53.039Z,1.79
2023-02-14T03:54:59.332Z,1.79
2023-02-14T03:56:21.567Z,1.78
2023-02-14T03:57:37.134Z,1.76
2023-02-14T03:58:45.889Z,1.73
2023-02-14T03:59:48.054Z,1.71
2023-02-14T04:00:54.386Z,1.71
2023-02-14T04:02:04.551Z,1.70
2023-02-14T04:03:11.847Z,1.68
2023-02-14T04:04:18.215Z,1.67
2023-02-14T04:05:26.682Z,1.65
2023-02-14T04:06:27.203Z,1.63
2023-02-14T04:07:27.576Z,1.62
2023-02-14T04:08:29.214Z,1.61
2023-02-14T04:09:29.615Z,1.60
2023-02-14T04:10:31.166Z,1.60
2023-02-14T04:11:35.042Z,1.58
2023-02-14T04:12:38.080Z,1.57
2023-02-14T04:13:39.152Z,1.56
2023-02-14T04:14:40.263Z,1.55
2023-02-14T04:15:40.756Z,1.54
2023-02-14T04:17:00.335Z,1.53
2023-02-14T04:18:19.489Z,1.53
2023-02-14T04:19:22.633Z,1.51
2023-02-14T04:20:24.362Z,1.52
2023-02-14T04:21:25.108Z,1.51
2023-02-14T04:22:25.628Z,1.51
2023-02-14T04:23:26.190Z,1.52
2023-02-14T04:24:26.809Z,1.53
2023-02-14T04:25:27.312Z,1.52
2023-02-14T04:26:27.806Z,1.50
2023-02-14T04:27:28.213Z,1.49
2023-02-14T04:28:28.772Z,1.48
2023-02-14T04:29:29.113Z,1.48
2023-02-14T04:30:29.819Z,1.49
2023-02-14T04:31:30.455Z,1.48
2023-02-14T04:32:31.042Z,1.48
2023-02-14T04:33:33.410Z,1.49
2023-02-14T04:34:34.728Z,1.50
2023-02-14T04:35:35.113Z,1.50
2023-02-14T04:36:35.645Z,1.50
2023-02-14T04:37:36.077Z,1.50
2023-02-14T04:38:36.656Z,1.49
2023-02-14T04:39:38.015Z,1.48
2023-02-14T04:40:38.437Z,1.46
2023-02-14T04:41:38.862Z,1.45
2023-02-14T04:42:39.318Z,1.44
2023-02-14T04:43:39.725Z,1.42
2023-02-14T04:44:40.456Z,1.41
2023-02-14T04:45:40.927Z,1.41
2023-02-14T04:46:41.579Z,1.41
2023-02-14T04:47:42.221Z,1.41
2023-02-14T04:48:42.913Z,1.41
2023-02-14T04:49:43.352Z,1.41
2023-02-14T04:50:43.775Z,1.40
2023-02-14T04:51:45.559Z,1.41
2023-02-14T04:52:45.933Z,1.40
2023-02-14T04:53:46.343Z,1.39
2023-02-14T04:54:48.056Z,1.39
2023-02-14T04:55:49.887Z,1.40
2023-02-14T04:56:51.313Z,1.39
2023-02-14T04:57:51.816Z,1.39
2023-02-14T04:58:53.631Z,1.39
2023-02-14T04:59:54.064Z,1.38
2023-02-14T05:00:54.498Z,1.39
2023-02-14T05:01:55.121Z,1.39
2023-02-14T05:02:55.533Z,1.38
2023-02-14T05:03:56.498Z,1.37
2023-02-14T05:04:57.072Z,1.36
2023-02-14T05:05:57.458Z,1.35
2023-02-14T05:06:57.901Z,1.30
2023-02-14T05:07:58.400Z,1.29
2023-02-14T05:09:00.724Z,1.26
2023-02-14T05:10:01.936Z,1.24
2023-02-14T05:11:02.595Z,1.22
2023-02-14T05:12:03.225Z,1.21
2023-02-14T05:13:03.941Z,1.19
2023-02-14T05:14:04.444Z,1.18
2023-02-14T05:15:05.102Z,1.19
2023-02-14T05:16:05.677Z,1.18
2023-02-14T05:17:06.415Z,1.18
2023-02-14T05:18:06.930Z,1.16
2023-02-14T05:19:07.726Z,1.15
2023-02-14T05:20:09.400Z,1.14
2023-02-14T05:21:10.644Z,1.12
2023-02-14T05:22:11.191Z,1.11
2023-02-14T05:23:12.970Z,1.09
2023-02-14T05:24:13.444Z,1.07
2023-02-14T05:25:13.828Z,1.05
2023-02-14T05:26:14.671Z,1.04
2023-02-14T05:27:15.152Z,1.03
2023-02-14T05:28:15.880Z,1.02
2023-02-14T05:29:16.317Z,1.03
2023-02-14T05:30:17.027Z,1.03
2023-02-14T05:31:17.492Z,1.04
2023-02-14T05:32:18.177Z,1.06
2023-02-14T05:33:18.977Z,1.06
2023-02-14T05:34:20.030Z,1.07
2023-02-14T05:35:22.468Z,1.06
2023-02-14T05:36:22.952Z,1.07
2023-02-14T05:37:23.467Z,1.07
2023-02-14T05:38:23.958Z,1.08
2023-02-14T05:39:24.514Z,1.08
2023-02-14T05:41:25.550Z,1.05
2023-02-14T05:42:25.997Z,1.06
2023-02-14T05:43:26.540Z,1.07
2023-02-14T05:44:27.021Z,1.07
2023-02-14T05:45:27.378Z,1.07
2023-02-14T05:46:27.885Z,1.07
2023-02-14T05:47:28.373Z,1.07
2023-02-14T05:48:28.888Z,1.05
2023-02-14T05:49:29.416Z,1.04
2023-02-14T05:50:29.831Z,1.03
2023-02-14T05:51:30.993Z,1.01
2023-02-14T05:52:31.520Z,1.00
2023-02-14T05:53:33.155Z,1.00
2023-02-14T05:54:33.734Z,0.98
2023-02-14T05:55:34.451Z,0.97
2023-02-14T05:56:35.195Z,0.97
2023-02-14T05:57:36.023Z,0.96
2023-02-14T05:58:36.506Z,0.95
2023-02-14T05:59:36.841Z,0.94
2023-02-14T06:00:40.937Z,0.93
2023-02-14T06:01:41.912Z,0.94
2023-02-14T06:02:42.840Z,0.93
2023-02-14T06:03:43.367Z,0.92
2023-02-14T06:04:43.843Z,0.90
2023-02-14T06:05:44.638Z,0.89
2023-02-14T06:06:45.068Z,0.87
2023-02-14T06:07:49.904Z,0.86
2023-02-14T06:08:50.856Z,0.85
2023-02-14T06:09:51.261Z,0.85
2023-02-14T06:10:51.746Z,0.84
2023-02-14T06:11:55.134Z,0.86
2023-02-14T06:12:55.770Z,0.87
2023-02-14T06:13:57.122Z,0.87
2023-02-14T06:14:57.547Z,0.89
2023-02-14T06:15:57.964Z,0.91
2023-02-14T06:16:58.488Z,0.91
2023-02-14T06:17:59.089Z,0.92
2023-02-14T06:18:59.581Z,0.93
2023-02-14T06:20:00.115Z,0.94
2023-02-14T06:21:01.133Z,0.95
2023-02-14T06:22:03.362Z,0.95
2023-02-14T06:23:04.226Z,0.94
2023-02-14T06:24:04.692Z,0.94
2023-02-14T06:25:05.996Z,0.95
2023-02-14T06:26:06.422Z,0.95
2023-02-14T06:27:06.783Z,0.95
2023-02-14T06:28:07.146Z,0.95
2023-02-14T06:29:07.675Z,0.95
2023-02-14T06:30:09.827Z,0.97
2023-02-14T06:31:17.661Z,0.97
2023-02-14T06:32:18.425Z,0.97
2023-02-14T06:33:19.060Z,0.98
2023-02-14T06:34:19.656Z,0.96
2023-02-14T06:35:20.423Z,0.95
2023-02-14T06:36:22.411Z,0.93
2023-02-14T06:37:22.930Z,0.93
2023-02-14T06:38:23.362Z,0.94
2023-02-14T06:39:23.869Z,0.96
2023-02-14T06:40:24.461Z,0.98
2023-02-14T06:41:24.927Z,0.99
2023-02-14T06:42:25.405Z,0.99
2023-02-14T06:43:25.855Z,1.00
2023-02-14T06:44:26.274Z,0.96
2023-02-14T06:45:26.898Z,0.94
2023-02-14T06:46:27.557Z,0.92
2023-02-14T06:47:28.198Z,0.91
2023-02-14T06:48:29.226Z,0.90
2023-02-14T06:49:29.705Z,0.89
2023-02-14T06:50:30.193Z,0.88
2023-02-14T06:51:30.700Z,0.87
2023-02-14T06:52:33.474Z,0.87
2023-02-14T06:53:35.187Z,0.88
2023-02-14T06:54:35.704Z,0.87
2023-02-14T06:55:36.147Z,0.86
2023-02-14T06:56:36.644Z,0.84
2023-02-14T06:57:37.235Z,0.83
2023-02-14T06:58:37.710Z,0.81
2023-02-14T06:59:38.363Z,0.81
2023-02-14T07:00:41.978Z,0.80
2023-02-14T07:01:45.612Z,0.80
2023-02-14T07:02:46.470Z,0.81
2023-02-14T07:03:47.149Z,0.82
2023-02-14T07:04:47.816Z,0.84
2023-02-14T07:05:48.454Z,0.86
2023-02-14T07:06:48.899Z,0.88
2023-02-14T07:07:49.493Z,0.88
2023-02-14T07:08:50.077Z,0.89
2023-02-14T07:09:51.212Z,0.89
2023-02-14T07:10:56.401Z,0.88
2023-02-14T07:11:56.939Z,0.88
2023-02-14T07:12:57.619Z,0.86
2023-02-14T07:13:57.982Z,0.86
2023-02-14T07:14:58.629Z,0.85
2023-02-14T07:15:59.432Z,0.84
2023-02-14T07:16:59.821Z,0.84
2023-02-14T07:18:00.540Z,0.83
2023-02-14T07:19:01.329Z,0.82
2023-02-14T07:20:02.774Z,0.81
2023-02-14T07:21:03.540Z,0.81
2023-02-14T07:22:04.184Z,0.81
2023-02-14T07:23:04.729Z,0.82
2023-02-14T07:24:05.302Z,0.82
2023-02-14T07:25:07.360Z,0.83
2023-02-14T07:26:07.839Z,0.84
2023-02-14T07:27:08.295Z,0.84
2023-02-14T07:28:08.684Z,0.86
2023-02-14T07:29:09.129Z,0.85
2023-02-14T07:30:11.417Z,0.86
2023-02-14T07:31:12.083Z,0.85
2023-02-14T07:32:12.802Z,0.86
2023-02-14T07:33:13.473Z,0.86
2023-02-14T07:34:14.179Z,0.89
2023-02-14T07:35:15.360Z,0.88
2023-02-14T07:36:15.947Z,0.89
2023-02-14T07:37:17.146Z,0.89
2023-02-14T07:38:17.628Z,0.90
2023-02-14T07:39:18.055Z,0.91
2023-02-14T07:40:21.749Z,0.91
2023-02-14T07:41:22.721Z,0.91
2023-02-14T07:42:23.198Z,0.92
2023-02-14T07:43:23.573Z,0.93
2023-02-14T07:44:24.394Z,0.93
2023-02-14T07:45:25.269Z,0.96
2023-02-14T07:46:25.718Z,0.96
2023-02-14T07:47:26.265Z,0.98
2023-02-14T07:48:29.658Z,1.01
2023-02-14T07:49:31.504Z,1.03
2023-02-14T07:50:31.955Z,1.06
2023-02-14T07:51:32.363Z,1.09
2023-02-14T07:52:32.813Z,1.11
2023-02-14T07:53:33.282Z,1.14
2023-02-14T07:54:33.868Z,1.15
2023-02-14T07:55:34.589Z,1.17
2023-02-14T07:56:35.469Z,1.18
2023-02-14T07:57:35.947Z,1.19
2023-02-14T07:58:36.324Z,1.20
2023-02-14T07:59:36.804Z,1.22
2023-02-14T08:00:37.262Z,1.24
2023-02-14T08:01:37.745Z,1.25
2023-02-14T08:02:38.191Z,1.27
2023-02-14T08:03:38.615Z,1.29
2023-02-14T08:04:38.978Z,1.31
2023-02-14T08:05:40.653Z,1.33
2023-02-14T08:06:42.474Z,1.36
2023-02-14T08:07:43.725Z,1.39
2023-02-14T08:08:45.109Z,1.40
2023-02-14T08:09:45.566Z,1.40
2023-02-14T08:10:46.003Z,1.40
2023-02-14T08:12:05.165Z,1.40
2023-02-14T08:13:05.922Z,1.40
2023-02-14T08:14:06.420Z,1.39
2023-02-14T08:15:26.568Z,1.37
2023-02-14T08:16:27.260Z,1.35
2023-02-14T08:17:27.733Z,1.32
2023-02-14T08:18:28.162Z,1.34
2023-02-14T08:19:29.300Z,1.36
2023-02-14T08:20:29.807Z,1.39
2023-02-14T08:21:30.684Z,1.42
2023-02-14T08:22:31.172Z,1.44
2023-02-14T08:23:32.425Z,1.45
2023-02-14T08:24:33.220Z,1.46
2023-02-14T08:25:34.111Z,1.48
2023-02-14T08:26:36.847Z,1.48
2023-02-14T08:27:37.272Z,1.50
2023-02-14T08:28:37.753Z,1.52
2023-02-14T08:29:38.245Z,1.54
2023-02-14T08:30:38.862Z,1.56
2023-02-14T08:31:39.352Z,1.57
2023-02-14T08:32:40.055Z,1.59
2023-02-14T08:33:42.444Z,1.61
2023-02-14T08:34:43.139Z,1.62
2023-02-14T08:35:44.012Z,1.63
2023-02-14T08:36:45.084Z,1.64
2023-02-14T08:37:45.808Z,1.62
2023-02-14T08:38:49.764Z,1.64
2023-02-14T08:39:50.272Z,1.66
2023-02-14T08:40:50.779Z,1.68
2023-02-14T08:41:51.240Z,1.67
2023-02-14T08:42:51.781Z,1.68
2023-02-14T08:43:52.268Z,1.69
2023-02-14T08:44:52.600Z,1.69
2023-02-14T08:45:53.492Z,1.70
2023-02-14T08:46:54.064Z,1.70
2023-02-14T08:47:54.652Z,1.72
2023-02-14T08:48:55.944Z,1.73
2023-02-14T08:49:56.425Z,1.74
2023-02-14T08:50:57.229Z,1.73
2023-02-14T08:51:57.846Z,1.72
2023-02-14T08:52:58.708Z,1.72
2023-02-14T08:53:59.039Z,1.76
2023-02-14T08:54:59.535Z,1.78
2023-02-14T08:56:08.535Z,1.80
2023-02-14T08:57:08.995Z,1.84
2023-02-14T08:58:09.467Z,1.84
2023-02-14T08:59:09.869Z,1.86
2023-02-14T09:00:10.918Z,1.88
2023-02-14T09:01:16.375Z,1.89
2023-02-14T09:02:16.907Z,1.90
2023-02-14T09:03:17.380Z,1.92
2023-02-14T09:04:17.843Z,1.90
2023-02-14T09:05:20.608Z,1.87
2023-02-14T09:06:21.708Z,1.84
2023-02-14T09:07:22.405Z,1.84
2023-02-14T09:08:22.979Z,1.85
2023-02-14T09:09:23.519Z,1.88
2023-02-14T09:10:25.787Z,1.93
2023-02-14T09:11:26.866Z,1.95
2023-02-14T09:12:27.343Z,1.99
2023-02-14T09:13:28.198Z,2.02
2023-02-14T09:14:33.741Z,2.03
2023-02-14T09:15:34.301Z,2.03
2023-02-14T09:16:35.115Z,2.03
2023-02-14T09:17:37.869Z,2.01
2023-02-14T09:18:39.469Z,2.00
2023-02-14T09:19:40.819Z,1.97
2023-02-14T09:20:44.220Z,1.93
2023-02-14T09:21:44.620Z,1.90
2023-02-14T09:22:46.549Z,1.87
2023-02-14T09:23:49.004Z,1.83
2023-02-14T09:24:49.694Z,1.83
2023-02-14T09:25:50.424Z,1.84
2023-02-14T09:26:50.866Z,1.87
2023-02-14T09:27:51.486Z,1.91
2023-02-14T09:28:51.941Z,1.92
2023-02-14T09:29:53.127Z,1.93
2023-02-14T09:30:54.588Z,1.93
2023-02-14T09:31:58.963Z,1.93
2023-02-14T09:32:59.847Z,1.92
2023-02-14T09:34:19.312Z,1.91
2023-02-14T09:35:39.150Z,1.89
2023-02-14T09:36:58.650Z,1.87
2023-02-14T09:37:59.204Z,1.89
2023-02-14T09:38:59.669Z,1.93
2023-02-14T09:40:00.128Z,1.95
2023-02-14T09:41:06.257Z,1.96
2023-02-14T09:42:33.351Z,1.96
2023-02-14T09:43:38.597Z,1.96
2023-02-14T09:44:46.034Z,1.97
2023-02-14T09:45:54.448Z,1.98
2023-02-14T09:47:04.896Z,1.98
2023-02-14T09:48:28.276Z,1.99
2023-02-14T09:49:37.494Z,2.02
2023-02-14T09:51:04.733Z,2.04
2023-02-14T09:52:12.335Z,2.07
2023-02-14T09:53:27.098Z,2.07
2023-02-14T09:54:32.070Z,2.13
2023-02-14T09:55:51.728Z,2.17
2023-02-14T09:56:53.274Z,2.21
2023-02-14T09:57:59.952Z,2.24
2023-02-14T09:59:14.810Z,2.23
2023-02-14T10:00:32.699Z,2.22
2023-02-14T10:01:45.599Z,2.20
2023-02-14T10:03:32.754Z,2.21
2023-02-14T10:04:55.478Z,2.20
2023-02-14T10:06:04.764Z,2.20
2023-02-14T10:07:25.314Z,2.22
2023-02-14T10:08:42.857Z,2.25
2023-02-14T10:10:09.034Z,2.28
2023-02-14T10:11:19.589Z,2.29
2023-02-14T10:12:33.098Z,2.32
2023-02-14T10:13:41.869Z,2.32
2023-02-14T10:14:43.032Z,2.28
2023-02-14T10:15:58.406Z,2.24
2023-02-14T10:17:16.162Z,2.18
2023-02-14T10:18:40.562Z,2.14
2023-02-14T10:20:00.955Z,2.12
2023-02-14T10:21:05.423Z,2.12
2023-02-14T10:22:19.060Z,2.13
2023-02-14T10:23:35.457Z,2.16
2023-02-14T10:24:57.040Z,2.19
2023-02-14T10:26:11.699Z,2.21
2023-02-14T10:27:31.028Z,2.23
2023-02-14T10:28:48.856Z,2.22
2023-02-14T10:29:49.630Z,2.21
2023-02-14T10:31:22.593Z,2.20
2023-02-14T10:33:10.900Z,2.24
2023-02-14T10:34:22.918Z,2.29
2023-02-14T10:35:58.900Z,2.30
2023-02-14T10:37:24.185Z,2.33
2023-02-14T10:38:33.366Z,2.33
2023-02-14T10:40:09.446Z,2.33
2023-02-14T10:41:41.991Z,2.34
2023-02-14T10:42:48.763Z,2.32
2023-02-14T10:43:57.998Z,2.32
2023-02-14T10:45:23.365Z,2.33
2023-02-14T10:46:36.022Z,2.33
2023-02-14T10:47:55.023Z,2.35
2023-02-14T10:49:37.398Z,2.37
2023-02-14T10:51:14.424Z,2.42
2023-02-14T10:52:29.391Z,2.44
2023-02-14T10:54:09.997Z,2.44
2023-02-14T10:55:37.019Z,2.47
2023-02-14T10:57:09.345Z,2.48
2023-02-14T10:58:15.513Z,2.52
2023-02-14T10:59:48.034Z,2.55
2023-02-14T11:01:13.049Z,2.61
2023-02-14T11:02:18.025Z,2.59
2023-02-14T11:03:19.449Z,2.59
2023-02-14T11:04:24.572Z,2.58
2023-02-14T11:05:34.283Z,2.54
2023-02-14T11:06:34.663Z,2.53
2023-02-14T11:07:35.160Z,2.53
2023-02-14T11:08:39.875Z,2.54
2023-02-14T11:09:40.534Z,2.56
2023-02-14T11:10:41.210Z,2.58
2023-02-14T11:11:56.218Z,2.61
2023-02-14T11:12:57.856Z,2.58
2023-02-14T11:13:58.397Z,2.56
2023-02-14T11:15:32.861Z,2.52
2023-02-14T11:16:36.840Z,2.46
2023-02-14T11:17:37.344Z,2.43
2023-02-14T11:18:40.292Z,2.39
2023-02-14T11:19:40.692Z,2.38
2023-02-14T11:20:41.163Z,2.38
2023-02-14T11:21:45.641Z,2.39
2023-02-14T11:22:46.264Z,2.40
2023-02-14T11:23:50.168Z,2.43
2023-02-14T11:25:04.729Z,2.45
2023-02-14T11:26:29.536Z,2.49
2023-02-14T11:27:30.537Z,2.55
2023-02-14T11:28:31.697Z,2.59
2023-02-14T11:29:43.040Z,2.63
2023-02-14T11:30:48.480Z,2.64
2023-02-14T11:31:49.538Z,2.67
2023-02-14T11:32:55.711Z,2.68
2023-02-14T11:33:58.030Z,2.68
2023-02-14T11:35:03.593Z,2.68
2023-02-14T11:36:11.470Z,2.67
2023-02-14T11:37:42.249Z,2.65
2023-02-14T11:38:54.100Z,2.64
2023-02-14T11:39:58.839Z,2.64
2023-02-14T11:41:00.114Z,2.64
2023-02-14T11:42:04.032Z,2.65
2023-02-14T11:43:14.239Z,2.65
2023-02-14T11:44:21.993Z,2.70
2023-02-14T11:45:30.183Z,2.73
2023-02-14T11:46:38.558Z,2.79
2023-02-14T11:47:45.237Z,2.86
2023-02-14T11:49:02.321Z,2.88
2023-02-14T11:50:21.592Z,2.90
2023-02-14T11:51:33.465Z,2.91
2023-02-14T11:52:47.747Z,2.92
2023-02-14T11:53:55.479Z,2.93
2023-02-14T11:54:58.509Z,2.94
2023-02-14T11:56:00.141Z,2.96
2023-02-14T11:57:06.754Z,2.97
2023-02-14T11:58:27.089Z,2.99
2023-02-14T11:59:33.906Z,3.01
2023-02-14T12:00:34.623Z,3.02
2023-02-14T12:01:38.014Z,3.02
2023-02-14T12:02:49.325Z,3.02
2023-02-14T12:03:53.354Z,3.02
2023-02-14T12:05:16.347Z,3.04
2023-02-14T12:06:30.746Z,3.07
2023-02-14T12:07:36.487Z,3.10
2023-02-14T12:08:38.412Z,3.11
2023-02-14T12:09:40.786Z,3.13
2023-02-14T12:10:44.612Z,3.14
2023-02-14T12:11:58.827Z,3.16
2023-02-14T12:13:08.302Z,3.19
2023-02-14T12:14:21.311Z,3.22
2023-02-14T12:15:39.916Z,3.23
2023-02-14T12:17:04.146Z,3.21
2023-02-14T12:18:16.560Z,3.17
2023-02-14T12:19:26.195Z,3.14
2023-02-14T12:21:01.279Z,3.13
2023-02-14T12:22:05.512Z,3.12
2023-02-14T12:23:29.492Z,3.14
2023-02-14T12:24:39.867Z,3.15
2023-02-14T12:25:49.829Z,3.15
2023-02-14T12:27:16.029Z,3.12
2023-02-14T12:28:27.136Z,3.08
2023-02-14T12:29:48.129Z,3.03
2023-02-14T12:30:49.107Z,3.00
2023-02-14T12:31:49.989Z,2.96
2023-02-14T12:33:01.133Z,2.93
2023-02-14T12:34:03.740Z,2.88
2023-02-14T12:35:17.264Z,2.87
2023-02-14T12:36:57.379Z,2.87
2023-02-14T12:38:15.426Z,2.91
2023-02-14T12:39:36.240Z,2.94
2023-02-14T12:41:05.262Z,2.98
2023-02-14T12:42:25.650Z,3.05
2023-02-14T12:44:13.832Z,3.08
2023-02-14T12:45:23.911Z,3.06
2023-02-14T12:46:51.079Z,3.03
2023-02-14T12:48:00.613Z,3.01
2023-02-14T12:49:13.972Z,3.01
2023-02-14T12:50:47.677Z,3.03
2023-02-14T12:52:02.677Z,3.05
2023-02-14T12:53:22.413Z,3.06
2023-02-14T12:54:48.544Z,3.06
2023-02-14T12:56:06.269Z,3.05
2023-02-14T12:57:33.120Z,3.02
2023-02-14T12:58:44.179Z,2.97
2023-02-14T13:00:03.683Z,2.92
2023-02-14T13:01:24.671Z,2.91
2023-02-14T13:03:03.824Z,2.87
2023-02-14T13:04:22.679Z,2.83
2023-02-14T13:05:53.165Z,2.81
2023-02-14T13:07:15.803Z,2.84
2023-02-14T13:08:31.292Z,2.83
2023-02-14T13:09:53.081Z,2.82
2023-02-14T13:10:53.774Z,2.81
2023-02-14T13:12:24.873Z,2.80
2023-02-14T13:13:55.546Z,2.79
2023-02-14T13:15:10.980Z,2.78
2023-02-14T13:16:34.536Z,2.78
2023-02-14T13:17:46.502Z,2.79
2023-02-14T13:18:58.209Z,2.80
2023-02-14T13:20:45.197Z,2.84
2023-02-14T13:21:49.086Z,2.87
2023-02-14T13:22:52.415Z,2.86
2023-02-14T13:24:01.958Z,2.84
2023-02-14T13:25:13.744Z,2.82
2023-02-14T13:26:19.976Z,2.79
2023-02-14T13:27:32.644Z,2.78
2023-02-14T13:28:37.160Z,2.77
2023-02-14T13:29:50.285Z,2.78
2023-02-14T13:30:52.432Z,2.79
2023-02-14T13:31:59.837Z,2.78
2023-02-14T13:33:07.904Z,2.78
2023-02-14T13:34:26.650Z,2.77
2023-02-14T13:35:31.288Z,2.77
2023-02-14T13:36:33.035Z,2.77
2023-02-14T13:37:37.224Z,2.76
2023-02-14T13:38:46.033Z,2.77
2023-02-14T13:39:55.821Z,2.76
2023-02-14T13:40:59.330Z,2.73
2023-02-14T13:41:59.969Z,2.71
2023-02-14T13:43:01.900Z,2.68
2023-02-14T13:44:04.686Z,2.65
2023-02-14T13:45:05.953Z,2.64
2023-02-14T13:46:06.816Z,2.64
2023-02-14T13:47:26.108Z,2.64
2023-02-14T13:48:28.899Z,2.65
2023-02-14T13:49:33.913Z,2.64
2023-02-14T13:50:39.870Z,2.64
2023-02-14T13:51:49.397Z,2.62
2023-02-14T13:52:49.941Z,2.63
2023-02-14T13:53:51.847Z,2.64
2023-02-14T13:55:05.321Z,2.64
2023-02-14T13:56:28.986Z,2.65
2023-02-14T13:57:36.769Z,2.66
2023-02-14T13:58:53.888Z,2.69
2023-02-14T14:00:16.490Z,2.71
2023-02-14T14:01:38.669Z,2.70
2023-02-14T14:02:56.396Z,2.68
2023-02-14T14:04:24.402Z,2.66
2023-02-14T14:05:34.741Z,2.65
2023-02-14T14:07:03.500Z,2.64
2023-02-14T14:08:35.131Z,2.63
2023-02-14T14:09:41.986Z,2.63
2023-02-14T14:10:47.423Z,2.64
2023-02-14T14:11:50.251Z,2.65
2023-02-14T14:12:52.411Z,2.68
2023-02-14T14:14:16.921Z,2.70
2023-02-14T14:15:19.828Z,2.72
2023-02-14T14:16:23.098Z,2.72
2023-02-14T14:17:25.391Z,2.73
2023-02-14T14:18:28.937Z,2.74
2023-02-14T14:19:29.394Z,2.75
2023-02-14T14:20:40.440Z,2.76
2023-02-14T14:21:45.114Z,2.76
2023-02-14T14:22:47.960Z,2.75
2023-02-14T14:24:11.833Z,2.76
2023-02-14T14:25:14.790Z,2.77
2023-02-14T14:26:39.059Z,2.79
2023-02-14T14:27:46.300Z,2.82
2023-02-14T14:28:46.821Z,2.82
2023-02-14T14:30:02.388Z,2.78
2023-02-14T14:31:03.144Z,2.73
2023-02-14T14:32:17.592Z,2.68
2023-02-14T14:33:34.376Z,2.63
2023-02-14T14:34:34.893Z,2.58
2023-02-14T14:35:35.312Z,2.55
2023-02-14T14:36:35.682Z,2.53
2023-02-14T14:37:48.506Z,2.50
2023-02-14T14:38:52.824Z,2.50
2023-02-14T14:39:57.104Z,2.48
2023-02-14T14:40:59.323Z,2.47
2023-02-14T14:42:16.489Z,2.47
2023-02-14T14:43:38.677Z,2.47
2023-02-14T14:44:46.040Z,2.48
2023-02-14T14:45:51.983Z,2.48
2023-02-14T14:46:52.627Z,2.47
2023-02-14T14:47:57.548Z,2.47
2023-02-14T14:48:58.744Z,2.46
2023-02-14T14:50:07.273Z,2.43
2023-02-14T14:51:29.400Z,2.45
2023-02-14T14:52:35.597Z,2.45
2023-02-14T14:53:57.075Z,2.44
2023-02-14T14:55:00.190Z,2.43
2023-02-14T14:56:01.235Z,2.42